sensor_id;sensor_type;location;lat;lon;timestamp;pressure;altitude;pressure_sealevel;temperature;humidity
23574;BME280;11965;53.640;10.050;2023-05-03T00:00:12;102646.81;;;2.83;100.00
23574;BME280;11965;53.640;10.050;2023-05-03T00:02:41;102641.97;;;2.74;100.00
23574;BME280;11965;53.640;10.050;2023-05-03T00:05:10;102646.25;;;2.78;100.00
23574;BME280;11965;53.640;10.050;2023-05-03T00:07:38;102645.78;;;2.72;100.00
23574;BME280;11965;53.640;10.050;2023-05-03T00:10:06;102642.84;;;2.75;100.00
23574;BME280;11965;53.640;10.050;2023-05-03T00:12:37;102646.84;;;2.69;100.00
23574;BME280;11965;53.640;10.050;2023-05-03T00:15:05;102645.94;;;2.69;100.00
23574;BME280;11965;53.640;10.050;2023-05-03T00:17:32;102647.06;;;2.66;100.00
23574;BME280;11965;53.640;10.050;2023-05-03T00:19:59;102639.91;;;2.63;100.00
23574;BME280;11965;53.640;10.050;2023-05-03T00:22:26;102644.50;;;2.63;100.00
23574;BME280;11965;53.640;10.050;2023-05-03T00:24:53;102642.66;;;2.63;100.00
23574;BME280;11965;53.640;10.050;2023-05-03T00:27:21;102645.47;;;2.62;100.00
23574;BME280;11965;53.640;10.050;2023-05-03T00:29:51;102646.63;;;2.58;100.00
23574;BME280;11965;53.640;10.050;2023-05-03T00:32:19;102652.13;;;2.58;100.00
23574;BME280;11965;53.640;10.050;2023-05-03T00:34:52;102643.44;;;2.51;100.00
23574;BME280;11965;53.640;10.050;2023-05-03T00:37:19;102646.84;;;2.55;100.00
23574;BME280;11965;53.640;10.050;2023-05-03T00:39:46;102649.09;;;2.48;100.00
23574;BME280;11965;53.640;10.050;2023-05-03T00:42:13;102645.78;;;2.43;100.00
23574;BME280;11965;53.640;10.050;2023-05-03T00:44:40;102650.25;;;2.44;100.00
23574;BME280;11965;53.640;10.050;2023-05-03T00:47:09;102655.53;;;2.47;100.00
23574;BME280;11965;53.640;10.050;2023-05-03T00:49:36;102650.06;;;2.47;100.00
23574;BME280;11965;53.640;10.050;2023-05-03T00:52:03;102648.13;;;2.49;100.00
23574;BME280;11965;53.640;10.050;2023-05-03T00:54:33;102648.03;;;2.51;100.00
23574;BME280;11965;53.640;10.050;2023-05-03T00:57:01;102645.38;;;2.49;100.00
23574;BME280;11965;53.640;10.050;2023-05-03T00:59:33;102637.66;;;2.41;100.00
23574;BME280;11965;53.640;10.050;2023-05-03T01:02:00;102645.78;;;2.43;100.00
23574;BME280;11965;53.640;10.050;2023-05-03T01:04:29;102646.84;;;2.40;100.00
23574;BME280;11965;53.640;10.050;2023-05-03T01:07:05;102653.59;;;2.35;100.00
23574;BME280;11965;53.640;10.050;2023-05-03T01:09:42;102653.59;;;2.35;100.00
23574;BME280;11965;53.640;10.050;2023-05-03T01:12:23;102650.28;;;2.30;100.00
23574;BME280;11965;53.640;10.050;2023-05-03T01:15:06;102646.94;;;2.25;100.00
23574;BME280;11965;53.640;10.050;2023-05-03T01:17:38;102648.69;;;2.26;100.00
23574;BME280;11965;53.640;10.050;2023-05-03T01:20:08;102649.88;;;2.21;100.00
23574;BME280;11965;53.640;10.050;2023-05-03T01:22:59;102662.09;;;2.16;100.00
23574;BME280;11965;53.640;10.050;2023-05-03T01:25:29;102669.69;;;2.11;100.00
23574;BME280;11965;53.640;10.050;2023-05-03T01:27:57;102675.25;;;2.09;100.00
23574;BME280;11965;53.640;10.050;2023-05-03T01:30:26;102678.88;;;2.10;100.00
23574;BME280;11965;53.640;10.050;2023-05-03T01:33:02;102669.31;;;2.17;100.00
23574;BME280;11965;53.640;10.050;2023-05-03T01:35:36;102669.03;;;2.21;100.00
23574;BME280;11965;53.640;10.050;2023-05-03T01:38:13;102664.34;;;2.24;100.00
23574;BME280;11965;53.640;10.050;2023-05-03T01:40:48;102670.69;;;2.10;100.00
23574;BME280;11965;53.640;10.050;2023-05-03T01:43:17;102674.28;;;2.10;100.00
23574;BME280;11965;53.640;10.050;2023-05-03T01:45:46;102676.84;;;2.13;100.00
23574;BME280;11965;53.640;10.050;2023-05-03T01:48:15;102677.81;;;2.12;100.00
23574;BME280;11965;53.640;10.050;2023-05-03T01:50:43;102668.44;;;2.16;100.00
23574;BME280;11965;53.640;10.050;2023-05-03T01:53:10;102671.84;;;2.20;100.00
23574;BME280;11965;53.640;10.050;2023-05-03T01:55:37;102662.38;;;2.26;100.00
23574;BME280;11965;53.640;10.050;2023-05-03T01:58:05;102668.03;;;2.22;100.00
23574;BME280;11965;53.640;10.050;2023-05-03T02:00:32;102672.75;;;2.20;100.00
23574;BME280;11965;53.640;10.050;2023-05-03T02:02:59;102669.22;;;2.18;100.00
23574;BME280;11965;53.640;10.050;2023-05-03T02:05:26;102667.84;;;2.11;100.00
23574;BME280;11965;53.640;10.050;2023-05-03T02:07:56;102676.63;;;2.16;100.00
23574;BME280;11965;53.640;10.050;2023-05-03T02:10:22;102683.97;;;2.16;100.00
23574;BME280;11965;53.640;10.050;2023-05-03T02:12:49;102679.22;;;2.34;100.00
23574;BME280;11965;53.640;10.050;2023-05-03T02:15:23;102667.47;;;2.46;100.00
23574;BME280;11965;53.640;10.050;2023-05-03T02:17:50;102673.63;;;2.50;100.00
23574;BME280;11965;53.640;10.050;2023-05-03T02:20:18;102686.63;;;2.60;100.00
23574;BME280;11965;53.640;10.050;2023-05-03T02:22:45;102686.34;;;2.65;100.00
23574;BME280;11965;53.640;10.050;2023-05-03T02:25:12;102690.34;;;2.74;100.00
23574;BME280;11965;53.640;10.050;2023-05-03T02:27:39;102682.84;;;2.77;100.00
23574;BME280;11965;53.640;10.050;2023-05-03T02:30:07;102699.53;;;2.87;100.00
23574;BME280;11965;53.640;10.050;2023-05-03T02:32:41;102691.81;;;2.94;100.00
23574;BME280;11965;53.640;10.050;2023-05-03T02:35:09;102685.94;;;3.00;100.00
23574;BME280;11965;53.640;10.050;2023-05-03T02:37:36;102687.28;;;3.07;100.00
23574;BME280;11965;53.640;10.050;2023-05-03T02:40:08;102686.78;;;3.15;100.00
23574;BME280;11965;53.640;10.050;2023-05-03T02:42:35;102691.00;;;3.20;100.00
23574;BME280;11965;53.640;10.050;2023-05-03T02:45:05;102695.19;;;3.26;100.00
23574;BME280;11965;53.640;10.050;2023-05-03T02:47:32;102691.03;;;3.33;100.00
23574;BME280;11965;53.640;10.050;2023-05-03T02:50:00;102692.03;;;3.32;100.00
23574;BME280;11965;53.640;10.050;2023-05-03T02:52:30;102690.84;;;3.36;100.00
23574;BME280;11965;53.640;10.050;2023-05-03T02:55:00;102693.59;;;3.36;100.00
23574;BME280;11965;53.640;10.050;2023-05-03T02:57:27;102698.44;;;3.45;100.00
23574;BME280;11965;53.640;10.050;2023-05-03T02:59:55;102700.56;;;3.54;100.00
23574;BME280;11965;53.640;10.050;2023-05-03T03:02:22;102698.38;;;3.60;100.00
23574;BME280;11965;53.640;10.050;2023-05-03T03:04:48;102698.88;;;3.66;100.00
23574;BME280;11965;53.640;10.050;2023-05-03T03:07:17;102696.78;;;3.70;100.00
23574;BME280;11965;53.640;10.050;2023-05-03T03:09:47;102690.13;;;3.74;100.00
23574;BME280;11965;53.640;10.050;2023-05-03T03:12:15;102693.31;;;3.81;100.00
23574;BME280;11965;53.640;10.050;2023-05-03T03:14:42;102694.88;;;3.85;100.00
23574;BME280;11965;53.640;10.050;2023-05-03T03:17:10;102685.41;;;3.89;100.00
23574;BME280;11965;53.640;10.050;2023-05-03T03:19:38;102688.06;;;3.90;100.00
23574;BME280;11965;53.640;10.050;2023-05-03T03:22:07;102693.56;;;3.90;100.00
23574;BME280;11965;53.640;10.050;2023-05-03T03:24:35;102693.91;;;3.98;100.00
23574;BME280;11965;53.640;10.050;2023-05-03T03:27:03;102693.59;;;4.03;100.00
23574;BME280;11965;53.640;10.050;2023-05-03T03:29:33;102695.03;;;4.09;100.00
23574;BME280;11965;53.640;10.050;2023-05-03T03:32:00;102694.69;;;4.13;100.00
23574;BME280;11965;53.640;10.050;2023-05-03T03:34:28;102695.25;;;4.18;100.00
23574;BME280;11965;53.640;10.050;2023-05-03T03:36:55;102691.53;;;4.19;100.00
23574;BME280;11965;53.640;10.050;2023-05-03T03:39:24;102691.31;;;4.23;100.00
23574;BME280;11965;53.640;10.050;2023-05-03T03:41:53;102685.38;;;4.29;100.00
23574;BME280;11965;53.640;10.050;2023-05-03T03:44:21;102688.78;;;4.32;100.00
23574;BME280;11965;53.640;10.050;2023-05-03T03:46:48;102682.88;;;4.38;100.00
23574;BME280;11965;53.640;10.050;2023-05-03T03:49:16;102693.41;;;4.45;100.00
23574;BME280;11965;53.640;10.050;2023-05-03T03:51:43;102686.81;;;4.47;100.00
23574;BME280;11965;53.640;10.050;2023-05-03T03:54:10;102688.34;;;4.51;100.00
23574;BME280;11965;53.640;10.050;2023-05-03T03:56:42;102687.59;;;4.49;100.00
23574;BME280;11965;53.640;10.050;2023-05-03T03:59:10;102688.25;;;4.53;100.00
23574;BME280;11965;53.640;10.050;2023-05-03T04:01:38;102684.94;;;4.60;100.00
23574;BME280;11965;53.640;10.050;2023-05-03T04:04:05;102681.09;;;4.63;100.00
23574;BME280;11965;53.640;10.050;2023-05-03T04:06:33;102682.53;;;4.69;100.00
23574;BME280;11965;53.640;10.050;2023-05-03T04:09:04;102683.19;;;4.72;100.00
23574;BME280;11965;53.640;10.050;2023-05-03T04:11:36;102690.09;;;4.78;100.00
23574;BME280;11965;53.640;10.050;2023-05-03T04:14:04;102689.91;;;4.81;100.00
23574;BME280;11965;53.640;10.050;2023-05-03T04:16:33;102685.69;;;4.88;100.00
23574;BME280;11965;53.640;10.050;2023-05-03T04:19:02;102684.72;;;4.89;100.00
23574;BME280;11965;53.640;10.050;2023-05-03T04:21:31;102684.34;;;4.94;100.00
23574;BME280;11965;53.640;10.050;2023-05-03T04:23:58;102686.66;;;5.00;100.00
23574;BME280;11965;53.640;10.050;2023-05-03T04:26:26;102686.66;;;5.00;100.00
23574;BME280;11965;53.640;10.050;2023-05-03T04:28:56;102687.09;;;5.06;100.00
23574;BME280;11965;53.640;10.050;2023-05-03T04:31:22;102688.94;;;5.19;100.00
23574;BME280;11965;53.640;10.050;2023-05-03T04:33:53;102695.84;;;5.24;100.00
23574;BME280;11965;53.640;10.050;2023-05-03T04:36:21;102695.91;;;5.36;100.00
23574;BME280;11965;53.640;10.050;2023-05-03T04:38:52;102702.91;;;5.40;100.00
23574;BME280;11965;53.640;10.050;2023-05-03T04:41:19;102702.19;;;5.38;100.00
23574;BME280;11965;53.640;10.050;2023-05-03T04:43:46;102698.81;;;5.45;100.00
23574;BME280;11965;53.640;10.050;2023-05-03T04:46:14;102709.00;;;5.56;100.00
23574;BME280;11965;53.640;10.050;2023-05-03T04:48:44;102705.69;;;5.64;100.00
23574;BME280;11965;53.640;10.050;2023-05-03T04:51:12;102709.34;;;5.64;100.00
23574;BME280;11965;53.640;10.050;2023-05-03T04:53:44;102714.38;;;5.70;100.00
23574;BME280;11965;53.640;10.050;2023-05-03T04:56:15;102721.44;;;5.86;100.00
23574;BME280;11965;53.640;10.050;2023-05-03T04:58:45;102717.22;;;5.93;99.96
23574;BME280;11965;53.640;10.050;2023-05-03T05:01:13;102727.66;;;6.01;99.86
23574;BME280;11965;53.640;10.050;2023-05-03T05:03:40;102724.06;;;6.11;100.00
23574;BME280;11965;53.640;10.050;2023-05-03T05:06:15;102735.13;;;6.23;100.00
23574;BME280;11965;53.640;10.050;2023-05-03T05:08:46;102725.25;;;6.31;100.00
23574;BME280;11965;53.640;10.050;2023-05-03T05:11:14;102732.03;;;6.38;99.29
23574;BME280;11965;53.640;10.050;2023-05-03T05:13:41;102735.94;;;6.47;96.66
23574;BME280;11965;53.640;10.050;2023-05-03T05:16:08;102725.22;;;6.67;96.36
23574;BME280;11965;53.640;10.050;2023-05-03T05:18:39;102729.50;;;6.82;95.52
23574;BME280;11965;53.640;10.050;2023-05-03T05:21:08;102732.28;;;6.93;93.61
23574;BME280;11965;53.640;10.050;2023-05-03T05:23:38;102733.50;;;7.12;93.97
23574;BME280;11965;53.640;10.050;2023-05-03T05:26:06;102730.25;;;7.18;89.78
23574;BME280;11965;53.640;10.050;2023-05-03T05:28:33;102731.22;;;7.28;89.15
23574;BME280;11965;53.640;10.050;2023-05-03T05:31:00;102731.34;;;7.38;88.71
23574;BME280;11965;53.640;10.050;2023-05-03T05:33:27;102732.72;;;7.43;85.15
23574;BME280;11965;53.640;10.050;2023-05-03T05:35:55;102746.00;;;7.61;86.73
23574;BME280;11965;53.640;10.050;2023-05-03T05:38:22;102736.31;;;7.66;85.26
23574;BME280;11965;53.640;10.050;2023-05-03T05:40:54;102741.09;;;7.64;87.67
23574;BME280;11965;53.640;10.050;2023-05-03T05:43:24;102747.81;;;7.83;84.85
23574;BME280;11965;53.640;10.050;2023-05-03T05:45:51;102745.50;;;7.99;82.19
23574;BME280;11965;53.640;10.050;2023-05-03T05:48:21;102751.06;;;8.20;80.44
23574;BME280;11965;53.640;10.050;2023-05-03T05:50:49;102750.59;;;8.15;81.28
23574;BME280;11965;53.640;10.050;2023-05-03T05:53:16;102746.94;;;8.35;79.38
23574;BME280;11965;53.640;10.050;2023-05-03T05:55:55;102741.28;;;8.48;78.53
23574;BME280;11965;53.640;10.050;2023-05-03T05:58:23;102743.53;;;8.54;79.36
23574;BME280;11965;53.640;10.050;2023-05-03T06:00:57;102753.41;;;8.57;78.48
23574;BME280;11965;53.640;10.050;2023-05-03T06:03:24;102749.34;;;8.40;74.18
23574;BME280;11965;53.640;10.050;2023-05-03T06:05:52;102744.84;;;8.39;76.17
23574;BME280;11965;53.640;10.050;2023-05-03T06:08:19;102744.13;;;8.26;75.53
23574;BME280;11965;53.640;10.050;2023-05-03T06:10:47;102746.41;;;8.21;73.59
23574;BME280;11965;53.640;10.050;2023-05-03T06:13:15;102748.56;;;8.17;74.86
23574;BME280;11965;53.640;10.050;2023-05-03T06:15:44;102757.25;;;8.12;74.41
23574;BME280;11965;53.640;10.050;2023-05-03T06:18:11;102760.13;;;8.11;73.84
23574;BME280;11965;53.640;10.050;2023-05-03T06:20:38;102749.84;;;8.13;74.58
23574;BME280;11965;53.640;10.050;2023-05-03T06:23:05;102755.50;;;8.11;75.43
23574;BME280;11965;53.640;10.050;2023-05-03T06:25:36;102755.25;;;8.03;75.20
23574;BME280;11965;53.640;10.050;2023-05-03T06:28:03;102756.88;;;8.06;73.83
23574;BME280;11965;53.640;10.050;2023-05-03T06:30:34;102767.91;;;8.17;73.54
23574;BME280;11965;53.640;10.050;2023-05-03T06:33:06;102758.88;;;8.15;67.67
23574;BME280;11965;53.640;10.050;2023-05-03T06:35:34;102756.06;;;8.26;68.63
23574;BME280;11965;53.640;10.050;2023-05-03T06:38:01;102766.56;;;8.32;68.50
23574;BME280;11965;53.640;10.050;2023-05-03T06:40:28;102761.78;;;8.34;67.80
23574;BME280;11965;53.640;10.050;2023-05-03T06:42:55;102763.88;;;8.53;69.54
23574;BME280;11965;53.640;10.050;2023-05-03T06:45:35;102759.19;;;8.54;66.28
23574;BME280;11965;53.640;10.050;2023-05-03T06:48:02;102764.88;;;8.73;63.76
23574;BME280;11965;53.640;10.050;2023-05-03T06:50:29;102757.19;;;9.07;63.66
23574;BME280;11965;53.640;10.050;2023-05-03T06:52:56;102753.97;;;9.33;62.97
23574;BME280;11965;53.640;10.050;2023-05-03T06:55:23;102758.28;;;9.66;61.61
23574;BME280;11965;53.640;10.050;2023-05-03T06:57:50;102757.00;;;9.80;59.82
23574;BME280;11965;53.640;10.050;2023-05-03T07:00:19;102769.56;;;9.84;58.39
23574;BME280;11965;53.640;10.050;2023-05-03T07:02:49;102761.66;;;9.70;59.63
23574;BME280;11965;53.640;10.050;2023-05-03T07:05:16;102767.22;;;9.70;58.65
23574;BME280;11965;53.640;10.050;2023-05-03T07:07:43;102758.78;;;9.91;59.22
23574;BME280;11965;53.640;10.050;2023-05-03T07:10:10;102758.66;;;10.02;59.41
23574;BME280;11965;53.640;10.050;2023-05-03T07:12:37;102757.16;;;9.88;53.96
23574;BME280;11965;53.640;10.050;2023-05-03T07:15:05;102766.66;;;9.95;55.89
23574;BME280;11965;53.640;10.050;2023-05-03T07:17:32;102772.06;;;9.97;57.43
23574;BME280;11965;53.640;10.050;2023-05-03T07:20:00;102769.75;;;10.22;57.29
23574;BME280;11965;53.640;10.050;2023-05-03T07:22:27;102770.19;;;10.27;55.61
23574;BME280;11965;53.640;10.050;2023-05-03T07:24:54;102774.44;;;10.21;54.99
23574;BME280;11965;53.640;10.050;2023-05-03T07:27:24;102772.84;;;10.38;55.59
23574;BME280;11965;53.640;10.050;2023-05-03T07:29:51;102773.53;;;10.21;57.29
23574;BME280;11965;53.640;10.050;2023-05-03T07:32:18;102778.84;;;10.43;55.86
23574;BME280;11965;53.640;10.050;2023-05-03T07:34:46;102774.00;;;10.65;55.51
23574;BME280;11965;53.640;10.050;2023-05-03T07:37:14;102769.31;;;10.75;52.18
23574;BME280;11965;53.640;10.050;2023-05-03T07:39:42;102769.88;;;10.88;52.79
23574;BME280;11965;53.640;10.050;2023-05-03T07:42:09;102766.22;;;10.78;52.63
23574;BME280;11965;53.640;10.050;2023-05-03T07:44:38;102773.69;;;10.77;52.71
23574;BME280;11965;53.640;10.050;2023-05-03T07:47:07;102765.81;;;10.73;50.97
23574;BME280;11965;53.640;10.050;2023-05-03T07:49:37;102765.75;;;10.82;52.35
23574;BME280;11965;53.640;10.050;2023-05-03T07:52:04;102756.81;;;10.98;53.51
23574;BME280;11965;53.640;10.050;2023-05-03T07:54:32;102760.03;;;11.03;50.48
23574;BME280;11965;53.640;10.050;2023-05-03T07:56:59;102754.16;;;11.06;51.63
23574;BME280;11965;53.640;10.050;2023-05-03T07:59:28;102766.41;;;11.14;51.15
23574;BME280;11965;53.640;10.050;2023-05-03T08:01:55;102767.63;;;11.39;51.01
23574;BME280;11965;53.640;10.050;2023-05-03T08:04:22;102757.34;;;11.49;49.57
23574;BME280;11965;53.640;10.050;2023-05-03T08:06:49;102769.69;;;11.37;50.81
23574;BME280;11965;53.640;10.050;2023-05-03T08:09:16;102765.50;;;11.23;51.74
23574;BME280;11965;53.640;10.050;2023-05-03T08:11:44;102767.38;;;11.32;50.62
23574;BME280;11965;53.640;10.050;2023-05-03T08:14:11;102776.00;;;11.29;49.12
23574;BME280;11965;53.640;10.050;2023-05-03T08:16:38;102776.00;;;11.29;49.17
23574;BME280;11965;53.640;10.050;2023-05-03T08:19:05;102769.25;;;10.94;52.96
23574;BME280;11965;53.640;10.050;2023-05-03T08:21:35;102770.63;;;10.71;52.20
23574;BME280;11965;53.640;10.050;2023-05-03T08:24:02;102770.66;;;10.51;49.06
23574;BME280;11965;53.640;10.050;2023-05-03T08:26:30;102765.69;;;11.12;49.93
23574;BME280;11965;53.640;10.050;2023-05-03T08:28:59;102756.38;;;11.96;50.28
23574;BME280;11965;53.640;10.050;2023-05-03T08:31:27;102761.38;;;12.10;45.66
23574;BME280;11965;53.640;10.050;2023-05-03T08:33:55;102758.91;;;12.43;47.85
23574;BME280;11965;53.640;10.050;2023-05-03T08:36:22;102774.06;;;12.66;47.35
23574;BME280;11965;53.640;10.050;2023-05-03T08:38:49;102771.47;;;12.47;46.89
23574;BME280;11965;53.640;10.050;2023-05-03T08:41:24;102773.22;;;12.48;46.45
23574;BME280;11965;53.640;10.050;2023-05-03T08:43:53;102763.91;;;12.03;47.63
23574;BME280;11965;53.640;10.050;2023-05-03T08:46:22;102763.59;;;11.88;49.76
23574;BME280;11965;53.640;10.050;2023-05-03T08:48:52;102765.34;;;12.43;49.63
23574;BME280;11965;53.640;10.050;2023-05-03T08:51:20;102766.56;;;12.85;45.88
23574;BME280;11965;53.640;10.050;2023-05-03T08:53:48;102762.22;;;13.16;45.00
23574;BME280;11965;53.640;10.050;2023-05-03T08:56:28;102766.38;;;13.12;44.92
23574;BME280;11965;53.640;10.050;2023-05-03T08:58:58;102763.72;;;13.63;44.61
23574;BME280;11965;53.640;10.050;2023-05-03T09:01:35;102764.31;;;13.91;43.26
23574;BME280;11965;53.640;10.050;2023-05-03T09:04:02;102770.50;;;13.26;44.45
23574;BME280;11965;53.640;10.050;2023-05-03T09:06:29;102773.81;;;13.30;46.03
23574;BME280;11965;53.640;10.050;2023-05-03T09:08:58;102775.59;;;13.31;44.27
23574;BME280;11965;53.640;10.050;2023-05-03T09:11:27;102775.50;;;13.22;46.39
23574;BME280;11965;53.640;10.050;2023-05-03T09:14:07;102773.59;;;13.23;45.51
23574;BME280;11965;53.640;10.050;2023-05-03T09:16:37;102784.78;;;13.05;46.03
23574;BME280;11965;53.640;10.050;2023-05-03T09:19:06;102776.53;;;13.21;46.99
23574;BME280;11965;53.640;10.050;2023-05-03T09:21:36;102783.44;;;13.09;45.41
23574;BME280;11965;53.640;10.050;2023-05-03T09:24:12;102782.88;;;13.05;46.15
23574;BME280;11965;53.640;10.050;2023-05-03T09:26:39;102789.06;;;13.17;46.14
23574;BME280;11965;53.640;10.050;2023-05-03T09:29:09;102785.72;;;13.40;45.04
23574;BME280;11965;53.640;10.050;2023-05-03T09:31:58;102792.28;;;13.31;43.96
23574;BME280;11965;53.640;10.050;2023-05-03T09:34:25;102794.00;;;12.79;42.99
23574;BME280;11965;53.640;10.050;2023-05-03T09:36:52;102789.66;;;12.59;45.53
23574;BME280;11965;53.640;10.050;2023-05-03T09:39:19;102779.97;;;13.15;45.00
23574;BME280;11965;53.640;10.050;2023-05-03T09:41:46;102785.72;;;12.88;43.89
23574;BME280;11965;53.640;10.050;2023-05-03T09:44:13;102784.28;;;13.10;45.24
23574;BME280;11965;53.640;10.050;2023-05-03T09:47:01;102779.13;;;13.15;46.10
23574;BME280;11965;53.640;10.050;2023-05-03T09:49:29;102786.31;;;14.02;44.79
23574;BME280;11965;53.640;10.050;2023-05-03T09:51:57;102789.31;;;14.25;42.79
23574;BME280;11965;53.640;10.050;2023-05-03T09:54:26;102780.31;;;13.81;42.75
23574;BME280;11965;53.640;10.050;2023-05-03T09:56:56;102777.88;;;13.78;40.45
23574;BME280;11965;53.640;10.050;2023-05-03T09:59:23;102774.03;;;13.36;40.77
23574;BME280;11965;53.640;10.050;2023-05-03T10:01:55;102777.41;;;13.22;43.63
23574;BME280;11965;53.640;10.050;2023-05-03T10:04:25;102772.50;;;13.42;43.75
23574;BME280;11965;53.640;10.050;2023-05-03T10:06:57;102777.22;;;13.41;45.82
23574;BME280;11965;53.640;10.050;2023-05-03T10:09:32;102769.81;;;13.32;43.11
23574;BME280;11965;53.640;10.050;2023-05-03T10:12:06;102782.94;;;13.40;42.16
23574;BME280;11965;53.640;10.050;2023-05-03T10:14:33;102773.31;;;13.08;43.55
23574;BME280;11965;53.640;10.050;2023-05-03T10:17:07;102776.56;;;12.95;43.38
23574;BME280;11965;53.640;10.050;2023-05-03T10:19:41;102769.72;;;12.90;44.68
23574;BME280;11965;53.640;10.050;2023-05-03T10:22:11;102772.31;;;13.35;40.21
23574;BME280;11965;53.640;10.050;2023-05-03T10:25:08;102762.91;;;13.79;43.74
23574;BME280;11965;53.640;10.050;2023-05-03T10:27:50;102765.63;;;14.29;39.68
23574;BME280;11965;53.640;10.050;2023-05-03T10:30:28;102757.28;;;14.78;41.66
23574;BME280;11965;53.640;10.050;2023-05-03T10:32:57;102762.50;;;14.90;40.41
23574;BME280;11965;53.640;10.050;2023-05-03T10:35:27;102761.47;;;14.74;40.16
23574;BME280;11965;53.640;10.050;2023-05-03T10:37:55;102758.97;;;14.14;42.27
23574;BME280;11965;53.640;10.050;2023-05-03T10:40:23;102760.41;;;14.43;41.91
23574;BME280;11965;53.640;10.050;2023-05-03T10:43:06;102757.03;;;13.98;40.43
23574;BME280;11965;53.640;10.050;2023-05-03T10:45:33;102751.78;;;13.87;42.56
23574;BME280;11965;53.640;10.050;2023-05-03T10:48:20;102751.72;;;13.28;45.24
23574;BME280;11965;53.640;10.050;2023-05-03T10:50:48;102756.97;;;12.79;42.47
23574;BME280;11965;53.640;10.050;2023-05-03T10:53:36;102751.69;;;13.02;43.89
23574;BME280;11965;53.640;10.050;2023-05-03T10:56:05;102749.84;;;12.58;45.55
23574;BME280;11965;53.640;10.050;2023-05-03T10:58:35;102747.06;;;12.58;46.70
23574;BME280;11965;53.640;10.050;2023-05-03T11:01:04;102744.66;;;12.64;43.59
23574;BME280;11965;53.640;10.050;2023-05-03T11:03:43;102741.66;;;13.09;46.58
23574;BME280;11965;53.640;10.050;2023-05-03T11:06:26;102747.44;;;13.16;43.94
23574;BME280;11965;53.640;10.050;2023-05-03T11:08:53;102738.50;;;13.30;41.92
23574;BME280;11965;53.640;10.050;2023-05-03T11:11:21;102735.81;;;13.55;41.96
23574;BME280;11965;53.640;10.050;2023-05-03T11:13:49;102735.94;;;13.45;40.23
23574;BME280;11965;53.640;10.050;2023-05-03T11:16:18;102741.53;;;13.19;42.01
23574;BME280;11965;53.640;10.050;2023-05-03T11:18:47;102747.44;;;13.42;42.98
23574;BME280;11965;53.640;10.050;2023-05-03T11:21:14;102744.81;;;13.14;41.83
23574;BME280;11965;53.640;10.050;2023-05-03T11:23:43;102755.59;;;12.83;45.13
23574;BME280;11965;53.640;10.050;2023-05-03T11:26:10;102749.19;;;12.65;43.58
23574;BME280;11965;53.640;10.050;2023-05-03T11:28:37;102744.00;;;12.26;45.10
23574;BME280;11965;53.640;10.050;2023-05-03T11:31:04;102744.59;;;12.37;49.50
23574;BME280;11965;53.640;10.050;2023-05-03T11:33:32;102746.84;;;13.04;46.49
23574;BME280;11965;53.640;10.050;2023-05-03T11:36:02;102745.16;;;13.88;42.20
23574;BME280;11965;53.640;10.050;2023-05-03T11:38:30;102732.88;;;14.56;41.31
23574;BME280;11965;53.640;10.050;2023-05-03T11:40:58;102735.13;;;14.69;38.33
23574;BME280;11965;53.640;10.050;2023-05-03T11:43:25;102731.66;;;14.83;40.56
23574;BME280;11965;53.640;10.050;2023-05-03T11:45:56;102730.91;;;14.97;41.25
23574;BME280;11965;53.640;10.050;2023-05-03T11:48:23;102741.06;;;14.41;42.50
23574;BME280;11965;53.640;10.050;2023-05-03T11:50:53;102741.69;;;14.02;41.52
23574;BME280;11965;53.640;10.050;2023-05-03T11:53:23;102736.59;;;13.31;44.36
23574;BME280;11965;53.640;10.050;2023-05-03T11:55:52;102735.94;;;13.45;42.85
23574;BME280;11965;53.640;10.050;2023-05-03T11:58:21;102733.63;;;13.75;44.16
23574;BME280;11965;53.640;10.050;2023-05-03T12:00:51;102734.53;;;13.91;42.28
23574;BME280;11965;53.640;10.050;2023-05-03T12:03:20;102735.41;;;13.92;41.75
23574;BME280;11965;53.640;10.050;2023-05-03T12:05:48;102731.03;;;13.73;40.68
23574;BME280;11965;53.640;10.050;2023-05-03T12:08:17;102722.03;;;13.45;41.99
23574;BME280;11965;53.640;10.050;2023-05-03T12:10:50;102723.84;;;13.62;44.12
23574;BME280;11965;53.640;10.050;2023-05-03T12:13:26;102715.00;;;13.83;45.35
23574;BME280;11965;53.640;10.050;2023-05-03T12:15:56;102722.84;;;13.37;43.38
23574;BME280;11965;53.640;10.050;2023-05-03T12:18:24;102729.91;;;12.97;43.01
23574;BME280;11965;53.640;10.050;2023-05-03T12:20:57;102718.47;;;12.74;46.12
23574;BME280;11965;53.640;10.050;2023-05-03T12:23:24;102716.84;;;12.90;45.10
23574;BME280;11965;53.640;10.050;2023-05-03T12:25:52;102710.78;;;12.94;46.45
23574;BME280;11965;53.640;10.050;2023-05-03T12:28:19;102715.13;;;12.97;44.40
23574;BME280;11965;53.640;10.050;2023-05-03T12:30:46;102710.28;;;12.99;44.92
23574;BME280;11965;53.640;10.050;2023-05-03T12:33:13;102712.25;;;13.07;45.32
23574;BME280;11965;53.640;10.050;2023-05-03T12:35:42;102708.38;;;12.99;42.40
23574;BME280;11965;53.640;10.050;2023-05-03T12:38:09;102706.25;;;12.93;45.25
23574;BME280;11965;53.640;10.050;2023-05-03T12:40:37;102702.75;;;12.65;45.27
23574;BME280;11965;53.640;10.050;2023-05-03T12:43:06;102695.44;;;12.64;43.72
23574;BME280;11965;53.640;10.050;2023-05-03T12:45:33;102697.63;;;12.78;47.50
23574;BME280;11965;53.640;10.050;2023-05-03T12:48:01;102696.31;;;12.91;44.13
23574;BME280;11965;53.640;10.050;2023-05-03T12:50:28;102688.69;;;12.93;42.34
23574;BME280;11965;53.640;10.050;2023-05-03T12:52:55;102695.94;;;12.86;44.32